createdAt,value
2023-02-14T00:00:48.721Z,35.17
2023-02-14T00:03:15.846Z,33.40
2023-02-14T00:05:42.488Z,35.15
2023-02-14T00:08:09.104Z,32.77
2023-02-14T00:10:35.881Z,34.72
2023-02-14T00:13:02.546Z,31.50
2023-02-14T00:15:29.206Z,34.80
2023-02-14T00:17:59.883Z,31.90
2023-02-14T00:20:27.859Z,33.83
2023-02-14T00:22:54.811Z,33.22
2023-02-14T00:25:21.490Z,33.67
2023-02-14T00:27:48.156Z,35.78
2023-02-14T00:30:14.893Z,33.45
2023-02-14T00:32:42.814Z,33.23
2023-02-14T00:35:10.789Z,33.60
2023-02-14T00:37:37.784Z,30.55
2023-02-14T00:40:06.082Z,29.48
2023-02-14T00:42:32.725Z,31.27
2023-02-14T00:44:59.354Z,33.30
2023-02-14T00:47:26.105Z,30.40
2023-02-14T00:49:52.765Z,31.33
2023-02-14T00:52:19.442Z,28.13
2023-02-14T00:54:46.039Z,29.83
2023-02-14T00:57:12.606Z,27.60
2023-02-14T00:59:39.338Z,27.23
2023-02-14T01:02:06.261Z,30.25
2023-02-14T01:04:32.984Z,28.70
2023-02-14T01:06:59.615Z,30.27
2023-02-14T01:09:26.255Z,30.23
2023-02-14T01:11:52.963Z,29.95
2023-02-14T01:14:19.613Z,31.13
2023-02-14T01:16:46.402Z,31.58
2023-02-14T01:19:13.332Z,29.55
2023-02-14T01:21:39.956Z,28.97
2023-02-14T01:24:07.874Z,30.48
2023-02-14T01:26:35.265Z,30.63
2023-02-14T01:29:02.971Z,29.55
2023-02-14T01:31:32.081Z,29.48
2023-02-14T01:33:59.828Z,28.37
2023-02-14T01:36:32.418Z,28.23
2023-02-14T01:39:02.337Z,29.55
2023-02-14T01:41:32.371Z,28.27
2023-02-14T01:44:27.013Z,27.55
2023-02-14T01:46:54.457Z,25.20
2023-02-14T01:49:35.447Z,26.50
2023-02-14T01:52:12.557Z,28.27
2023-02-14T01:54:43.411Z,26.23
2023-02-14T01:57:14.180Z,22.95
2023-02-14T01:59:47.410Z,19.23
2023-02-14T02:02:14.097Z,19.90
2023-02-14T02:04:45.608Z,19.55
2023-02-14T02:07:20.849Z,20.17
2023-02-14T02:09:53.272Z,19.60
2023-02-14T02:12:20.383Z,19.63
2023-02-14T02:14:48.593Z,19.05
2023-02-14T02:17:34.587Z,18.77
2023-02-14T02:20:10.158Z,18.50
2023-02-14T02:23:13.572Z,19.55
2023-02-14T02:26:07.599Z,20.10
2023-02-14T02:29:11.697Z,19.13
2023-02-14T02:31:47.373Z,20.25
2023-02-14T02:34:55.031Z,18.70
2023-02-14T02:37:36.366Z,19.15
2023-02-14T02:40:28.496Z,19.33
2023-02-14T02:43:15.155Z,17.30
2023-02-14T02:46:16.860Z,18.60
2023-02-14T02:49:37.579Z,20.67
2023-02-14T02:52:29.571Z,17.08
2023-02-14T02:55:06.583Z,17.30
2023-02-14T02:57:37.543Z,17.42
2023-02-14T03:00:07.605Z,16.45
2023-02-14T03:03:10.002Z,17.90
2023-02-14T03:05:37.681Z,15.13
2023-02-14T03:08:05.744Z,17.97
2023-02-14T03:10:36.161Z,14.07
2023-02-14T03:13:24.575Z,13.18
2023-02-14T03:16:16.378Z,12.52
2023-02-14T03:19:28.553Z,14.85
2023-02-14T03:22:13.634Z,14.77
2023-02-14T03:24:45.997Z,13.23
2023-02-14T03:27:24.959Z,15.73
2023-02-14T03:30:09.835Z,14.48
2023-02-14T03:32:45.475Z,13.95
2023-02-14T03:35:30.766Z,12.27
2023-02-14T03:38:11.392Z,12.48
2023-02-14T03:40:54.656Z,11.40
2023-02-14T03:43:39.107Z,12.15
2023-02-14T03:46:20.920Z,10.18
2023-02-14T03:48:50.340Z,11.37
2023-02-14T03:51:19.960Z,12.85
2023-02-14T03:53:50.891Z,10.73
2023-02-14T03:56:34.573Z,10.13
2023-02-14T03:59:09.124Z,11.23
2023-02-14T04:01:58.323Z,11.37
2023-02-14T04:04:28.588Z,10.70
2023-02-14T04:06:55.441Z,10.38
2023-02-14T04:09:22.135Z,11.93
2023-02-14T04:11:50.384Z,11.35
2023-02-14T04:14:17.842Z,13.73
2023-02-14T04:17:03.065Z,12.40
2023-02-14T04:19:29.670Z,12.20
2023-02-14T04:21:56.295Z,13.00
2023-02-14T04:24:22.861Z,13.50
2023-02-14T04:27:10.123Z,13.03
2023-02-14T04:29:50.423Z,12.23
2023-02-14T04:32:20.372Z,13.40
2023-02-14T04:34:47.364Z,14.82
2023-02-14T04:37:16.164Z,13.45
2023-02-14T04:39:42.812Z,13.63
2023-02-14T04:42:09.688Z,13.23
2023-02-14T04:44:38.152Z,13.50
2023-02-14T04:47:05.327Z,12.10
2023-02-14T04:49:32.294Z,12.23
2023-02-14T04:51:58.968Z,13.40
2023-02-14T04:54:25.597Z,12.98
2023-02-14T04:56:52.249Z,11.65
2023-02-14T04:59:18.913Z,12.63
2023-02-14T05:01:45.524Z,12.43
2023-02-14T05:04:12.168Z,12.70
2023-02-14T05:06:38.825Z,12.35
2023-02-14T05:09:05.739Z,13.13
2023-02-14T05:11:32.772Z,13.95
2023-02-14T05:13:59.384Z,12.82
2023-02-14T05:16:26.218Z,12.80
2023-02-14T05:18:52.902Z,12.80
2023-02-14T05:21:19.489Z,12.52
2023-02-14T05:23:46.491Z,13.73
2023-02-14T05:26:13.217Z,14.10
2023-02-14T05:28:40.979Z,14.37
2023-02-14T05:31:08.749Z,14.40
2023-02-14T05:33:35.481Z,13.50
2023-02-14T05:36:02.744Z,13.25
2023-02-14T05:38:30.681Z,13.80
2023-02-14T05:40:57.415Z,15.30
2023-02-14T05:43:24.204Z,14.27
2023-02-14T05:45:50.858Z,14.93
2023-02-14T05:48:17.899Z,15.55
2023-02-14T05:50:45.478Z,16.45
2023-02-14T05:53:13.216Z,16.70
2023-02-14T05:55:40.122Z,17.17
2023-02-14T05:58:07.384Z,17.08
2023-02-14T06:00:34.392Z,15.05
2023-02-14T06:03:01.165Z,15.95
2023-02-14T06:05:27.810Z,16.97
2023-02-14T06:07:54.536Z,15.85
2023-02-14T06:10:23.029Z,15.75
2023-02-14T06:12:51.680Z,17.48
2023-02-14T06:15:18.936Z,17.08
2023-02-14T06:17:47.087Z,19.73
2023-02-14T06:20:13.817Z,16.58
2023-02-14T06:22:40.408Z,17.65
2023-02-14T06:25:07.583Z,16.73
2023-02-14T06:27:34.286Z,16.27
2023-02-14T06:30:00.956Z,16.37
2023-02-14T06:32:27.683Z,14.35
2023-02-14T06:34:54.333Z,16.50
2023-02-14T06:37:21.070Z,14.38
2023-02-14T06:39:47.721Z,14.15
2023-02-14T06:42:14.345Z,14.90
2023-02-14T06:44:41.020Z,16.05
2023-02-14T06:47:08.516Z,16.48
2023-02-14T06:49:35.155Z,15.73
2023-02-14T06:52:02.005Z,15.85
2023-02-14T06:54:28.622Z,16.63
2023-02-14T06:56:55.293Z,14.02
2023-02-14T06:59:22.040Z,16.30
2023-02-14T07:01:48.686Z,15.73
2023-02-14T07:04:15.714Z,13.65
2023-02-14T07:06:42.298Z,12.97
2023-02-14T07:09:08.929Z,12.68
2023-02-14T07:11:35.618Z,12.55
2023-02-14T07:14:02.204Z,13.75
2023-02-14T07:16:28.839Z,14.07
2023-02-14T07:18:55.411Z,14.20
2023-02-14T07:21:22.015Z,13.45
2023-02-14T07:23:49.997Z,13.63
2023-02-14T07:26:18.102Z,13.20
2023-02-14T07:28:51.735Z,12.30
2023-02-14T07:31:19.967Z,11.30
2023-02-14T07:33:46.760Z,13.45
2023-02-14T07:36:13.405Z,13.07
2023-02-14T07:38:40.060Z,15.40
2023-02-14T07:41:06.906Z,14.90
2023-02-14T07:43:34.480Z,13.27
2023-02-14T07:46:02.782Z,14.82
2023-02-14T07:48:32.492Z,14.25
2023-02-14T07:51:00.693Z,13.00
2023-02-14T07:53:27.579Z,14.55
2023-02-14T07:55:54.292Z,14.10
2023-02-14T07:58:20.952Z,13.57
2023-02-14T08:00:47.662Z,14.70
2023-02-14T08:03:15.144Z,15.20
2023-02-14T08:05:41.869Z,17.48
2023-02-14T08:08:08.689Z,16.37
2023-02-14T08:10:35.332Z,15.63
2023-02-14T08:13:03.427Z,18.40
2023-02-14T08:15:53.002Z,16.58
2023-02-14T08:18:23.056Z,17.15
2023-02-14T08:20:50.991Z,17.27
2023-02-14T08:23:18.892Z,17.02
2023-02-14T08:25:46.202Z,17.98
2023-02-14T08:28:13.744Z,17.20
2023-02-14T08:30:40.926Z,17.85
2023-02-14T08:33:07.666Z,15.60
2023-02-14T08:35:34.920Z,15.05
2023-02-14T08:38:01.697Z,17.25
2023-02-14T08:40:28.582Z,16.15
2023-02-14T08:42:55.348Z,16.38
2023-02-14T08:45:22.344Z,16.03
2023-02-14T08:47:48.957Z,17.02
2023-02-14T08:50:17.352Z,17.20
2023-02-14T08:52:44.441Z,17.70
2023-02-14T08:55:12.672Z,18.17
2023-02-14T08:57:39.770Z,16.93
2023-02-14T09:00:07.447Z,17.42
2023-02-14T09:02:34.409Z,17.52
2023-02-14T09:05:01.080Z,18.13
2023-02-14T09:07:27.905Z,19.02
2023-02-14T09:09:54.565Z,18.60
2023-02-14T09:12:21.310Z,20.52
2023-02-14T09:14:47.986Z,17.67
2023-02-14T09:17:16.019Z,17.98
2023-02-14T09:19:42.901Z,19.63
2023-02-14T09:22:11.196Z,18.73
2023-02-14T09:24:38.985Z,18.38
2023-02-14T09:27:06.494Z,19.20
2023-02-14T09:29:33.612Z,20.00
2023-02-14T09:32:01.911Z,18.65
2023-02-14T09:34:29.352Z,19.60
2023-02-14T09:37:14.775Z,18.33
2023-02-14T09:39:41.422Z,19.70
2023-02-14T09:42:32.587Z,20.55
2023-02-14T09:45:26.832Z,20.13
2023-02-14T09:48:03.877Z,21.40
2023-02-14T09:50:40.231Z,21.45
2023-02-14T09:53:19.875Z,23.85
2023-02-14T09:55:53.920Z,21.55
2023-02-14T09:58:29.088Z,21.38
2023-02-14T10:01:12.674Z,22.67
2023-02-14T10:04:07.427Z,22.92
2023-02-14T10:07:09.324Z,23.00
2023-02-14T10:09:48.042Z,23.75
2023-02-14T10:12:31.744Z,21.65
2023-02-14T10:15:02.138Z,21.90
2023-02-14T10:17:44.944Z,21.27
2023-02-14T10:20:22.029Z,23.00
2023-02-14T10:23:14.508Z,21.58
2023-02-14T10:25:48.762Z,22.17
2023-02-14T10:28:22.000Z,22.03
2023-02-14T10:31:14.848Z,21.65
2023-02-14T10:33:49.344Z,21.42
2023-02-14T10:36:29.497Z,20.98
2023-02-14T10:39:32.005Z,21.13
2023-02-14T10:42:18.587Z,19.63
2023-02-14T10:44:53.004Z,20.13
2023-02-14T10:47:25.565Z,19.17
2023-02-14T10:50:18.706Z,19.20
2023-02-14T10:52:48.283Z,19.75
2023-02-14T10:55:31.545Z,20.07
2023-02-14T10:58:01.422Z,20.48
2023-02-14T11:00:34.331Z,20.35
2023-02-14T11:03:06.246Z,19.65
2023-02-14T11:05:48.444Z,21.00
2023-02-14T11:08:23.907Z,19.03
2023-02-14T11:10:51.458Z,20.40
2023-02-14T11:13:28.711Z,21.65
2023-02-14T11:15:59.969Z,19.98
2023-02-14T11:18:32.748Z,20.77
2023-02-14T11:21:07.254Z,19.40
2023-02-14T11:23:36.737Z,20.08
2023-02-14T11:26:07.397Z,19.63
2023-02-14T11:28:34.860Z,19.73
2023-02-14T11:31:02.405Z,19.67
2023-02-14T11:33:40.402Z,20.27
2023-02-14T11:36:16.717Z,19.42
2023-02-14T11:38:45.202Z,21.23
2023-02-14T11:41:14.896Z,20.25
2023-02-14T11:43:43.996Z,19.05
2023-02-14T11:46:52.188Z,18.07
2023-02-14T11:49:32.584Z,20.30
2023-02-14T11:52:10.207Z,19.00
2023-02-14T11:54:40.214Z,19.42
2023-02-14T11:57:32.478Z,19.33
2023-02-14T12:00:02.359Z,17.83
2023-02-14T12:02:36.331Z,19.13
2023-02-14T12:05:31.389Z,20.13
2023-02-14T12:08:02.125Z,18.65
2023-02-14T12:10:35.167Z,18.67
2023-02-14T12:13:10.176Z,18.03
2023-02-14T12:15:52.098Z,17.80
2023-02-14T12:18:43.990Z,19.17
2023-02-14T12:21:37.005Z,18.42
2023-02-14T12:24:07.365Z,18.45
2023-02-14T12:26:57.033Z,17.57
2023-02-14T12:29:36.838Z,18.23
2023-02-14T12:32:22.605Z,17.65
2023-02-14T12:34:50.396Z,17.73
2023-02-14T12:37:26.677Z,18.77
2023-02-14T12:40:16.190Z,18.50
2023-02-14T12:42:48.536Z,17.77
2023-02-14T12:45:33.700Z,18.13
2023-02-14T12:48:27.410Z,17.83
2023-02-14T12:51:30.398Z,17.70
2023-02-14T12:54:15.902Z,16.77
2023-02-14T12:57:07.767Z,18.05
2023-02-14T12:59:41.642Z,18.58
2023-02-14T13:02:57.407Z,17.63
2023-02-14T13:05:37.924Z,18.38
2023-02-14T13:08:48.009Z,17.73
2023-02-14T13:11:37.218Z,18.58
2023-02-14T13:14:09.582Z,18.85
2023-02-14T13:16:54.513Z,18.05
2023-02-14T13:19:29.948Z,17.48
2023-02-14T13:21:59.785Z,18.13
2023-02-14T13:24:34.787Z,17.38
2023-02-14T13:27:06.911Z,18.33
2023-02-14T13:30:00.653Z,18.63
2023-02-14T13:32:33.035Z,17.80
2023-02-14T13:35:00.555Z,16.97
2023-02-14T13:37:28.275Z,17.92
2023-02-14T13:39:59.123Z,18.70
2023-02-14T13:42:54.189Z,18.08
2023-02-14T13:45:40.772Z,18.17
2023-02-14T13:48:23.459Z,18.20
2023-02-14T13:51:03.785Z,18.10
2023-02-14T13:53:38.409Z,18.38
2023-02-14T13:56:16.902Z,18.20
2023-02-14T13:58:52.073Z,18.17
2023-02-14T14:01:33.985Z,17.13
2023-02-14T14:04:03.522Z,17.58
2023-02-14T14:06:30.423Z,18.15
2023-02-14T14:08:57.343Z,16.85
2023-02-14T14:11:23.960Z,17.35
2023-02-14T14:13:50.505Z,17.93
2023-02-14T14:16:20.531Z,17.67
2023-02-14T14:18:47.565Z,18.08
2023-02-14T14:21:29.178Z,17.80
2023-02-14T14:24:22.702Z,17.65
2023-02-14T14:27:06.572Z,17.30
2023-02-14T14:29:46.765Z,17.20
2023-02-14T14:32:37.891Z,19.20
2023-02-14T14:35:06.384Z,17.58
2023-02-14T14:37:45.616Z,18.42
2023-02-14T14:40:38.521Z,17.20
2023-02-14T14:43:23.191Z,18.10
2023-02-14T14:45:52.694Z,16.83
2023-02-14T14:48:27.459Z,16.98
2023-02-14T14:50:54.825Z,17.50
2023-02-14T14:53:29.066Z,17.43
2023-02-14T14:55:56.746Z,17.30
2023-02-14T14:58:42.123Z,17.80
2023-02-14T15:01:21.358Z,16.38
2023-02-14T15:03:48.272Z,17.15
2023-02-14T15:06:20.678Z,16.37
2023-02-14T15:08:49.121Z,16.77
2023-02-14T15:11:39.553Z,17.45
2023-02-14T15:14:13.275Z,16.42
2023-02-14T15:16:57.496Z,16.42
2023-02-14T15:19:37.196Z,16.57
2023-02-14T15:22:18.170Z,17.50
2023-02-14T15:24:45.265Z,16.80
2023-02-14T15:27:16.234Z,16.30
2023-02-14T15:29:52.334Z,17.23
2023-02-14T15:32:20.222Z,15.87
2023-02-14T15:34:47.267Z,16.67
2023-02-14T15:37:14.378Z,16.83
2023-02-14T15:39:46.661Z,16.42
2023-02-14T15:42:32.612Z,16.38
2023-02-14T15:45:26.006Z,16.23
2023-02-14T15:47:55.631Z,15.98
2023-02-14T15:50:29.592Z,15.60
2023-02-14T15:53:20.192Z,15.52
2023-02-14T15:55:49.648Z,16.75
2023-02-14T15:58:24.868Z,16.50
2023-02-14T16:00:53.385Z,16.67
2023-02-14T16:03:26.289Z,17.35
2023-02-14T16:05:54.727Z,16.52
2023-02-14T16:08:37.327Z,17.42
2023-02-14T16:11:14.591Z,16.50
2023-02-14T16:13:44.786Z,16.05
2023-02-14T16:16:13.764Z,16.05
2023-02-14T16:18:49.421Z,15.30
2023-02-14T16:21:18.079Z,15.68
2023-02-14T16:24:07.682Z,16.30
2023-02-14T16:26:38.066Z,16.95
2023-02-14T16:29:16.593Z,16.42
2023-02-14T16:34:37.509Z,16.27
2023-02-14T16:37:23.413Z,15.97
2023-02-14T16:39:52.918Z,17.02
2023-02-14T16:42:20.009Z,16.45
2023-02-14T16:44:46.999Z,16.30
2023-02-14T16:47:15.710Z,16.90
2023-02-14T16:49:42.403Z,15.87
2023-02-14T16:52:23.417Z,16.60
2023-02-14T16:54:50.303Z,17.50
2023-02-14T16:57:20.785Z,17.35
2023-02-14T16:59:47.546Z,17.17
2023-02-14T17:02:14.221Z,17.03
2023-02-14T17:04:41.063Z,17.63
2023-02-14T17:07:08.163Z,16.95
2023-02-14T17:09:41.284Z,16.52
2023-02-14T17:12:14.692Z,17.90
2023-02-14T17:14:44.035Z,18.27
2023-02-14T17:17:11.398Z,17.58
2023-02-14T17:19:38.195Z,18.27
2023-02-14T17:22:05.041Z,17.70
2023-02-14T17:24:32.261Z,16.55
2023-02-14T17:26:58.862Z,17.67
2023-02-14T17:29:25.528Z,16.60
2023-02-14T17:31:52.262Z,16.65
2023-02-14T17:34:19.159Z,17.33
2023-02-14T17:36:45.905Z,18.58
2023-02-14T17:39:12.561Z,17.37
2023-02-14T17:41:39.691Z,17.90
2023-02-14T17:44:07.264Z,15.90
2023-02-14T17:46:34.011Z,17.33
2023-02-14T17:49:02.593Z,17.85
2023-02-14T17:51:29.526Z,18.47
2023-02-14T17:53:58.805Z,19.23
2023-02-14T17:56:26.327Z,19.35
2023-02-14T17:58:54.991Z,19.23
2023-02-14T18:01:26.778Z,18.58
2023-02-14T18:03:54.261Z,19.50
2023-02-14T18:06:21.597Z,18.13
2023-02-14T18:08:50.420Z,19.42
2023-02-14T18:11:18.544Z,20.13
2023-02-14T18:13:45.236Z,19.48
2023-02-14T18:16:15.023Z,20.20
2023-02-14T18:18:42.185Z,19.85
2023-02-14T18:21:11.451Z,20.98
2023-02-14T18:23:38.496Z,19.70
2023-02-14T18:26:08.403Z,21.83
2023-02-14T18:28:36.090Z,21.00
2023-02-14T18:31:05.408Z,19.70
2023-02-14T18:33:33.240Z,19.95
2023-02-14T18:36:07.756Z,20.83
2023-02-14T18:38:35.340Z,21.20
2023-02-14T18:41:06.884Z,20.53
2023-02-14T18:43:33.643Z,20.65
2023-02-14T18:46:12.373Z,22.85
2023-02-14T18:48:40.124Z,21.73
2023-02-14T18:51:09.554Z,22.40
2023-02-14T18:53:40.753Z,22.30
2023-02-14T18:56:15.356Z,22.63
2023-02-14T18:58:46.070Z,22.95
2023-02-14T19:01:18.589Z,22.98
2023-02-14T19:03:45.589Z,22.38
2023-02-14T19:06:13.157Z,22.27
2023-02-14T19:08:40.587Z,22.30
2023-02-14T19:11:15.220Z,22.50
2023-02-14T19:13:53.563Z,22.00
2023-02-14T19:16:27.100Z,21.98
2023-02-14T19:18:54.425Z,22.03
2023-02-14T19:21:23.888Z,23.50
2023-02-14T19:23:53.115Z,23.10
2023-02-14T19:26:22.247Z,21.85
2023-02-14T19:28:53.644Z,26.00
2023-02-14T19:31:20.473Z,24.20
2023-02-14T19:33:48.059Z,23.60
2023-02-14T19:36:17.189Z,24.45
2023-02-14T19:38:46.450Z,23.67
2023-02-14T19:41:18.677Z,23.48
2023-02-14T19:43:46.259Z,23.20
2023-02-14T19:46:18.013Z,23.92
2023-02-14T19:48:44.868Z,24.33
2023-02-14T19:51:29.414Z,24.42
2023-02-14T19:53:57.963Z,22.80
2023-02-14T19:56:27.192Z,25.53
2023-02-14T19:58:55.958Z,26.17
2023-02-14T20:01:34.209Z,26.73
2023-02-14T20:04:01.071Z,26.20
2023-02-14T20:06:29.336Z,28.23
2023-02-14T20:08:56.191Z,26.80
2023-02-14T20:11:31.020Z,27.40
2023-02-14T20:13:58.489Z,27.23
2023-02-14T20:16:26.789Z,25.98
2023-02-14T20:18:54.018Z,25.98
2023-02-14T20:21:25.364Z,25.87
2023-02-14T20:23:52.219Z,26.58
2023-02-14T20:26:19.505Z,25.23
2023-02-14T20:28:46.298Z,25.38
2023-02-14T20:31:15.127Z,26.38
2023-02-14T20:33:41.891Z,24.60
2023-02-14T20:36:09.632Z,26.05
2023-02-14T20:38:36.294Z,25.65
2023-02-14T20:41:07.340Z,24.27
2023-02-14T20:43:34.179Z,25.98
2023-02-14T20:46:01.962Z,24.20
2023-02-14T20:48:29.527Z,24.92
2023-02-14T20:50:56.254Z,24.73
2023-02-14T20:53:23.411Z,24.83
2023-02-14T20:55:51.749Z,24.20
2023-02-14T20:58:19.732Z,24.17
2023-02-14T21:00:46.454Z,25.17
2023-02-14T21:03:13.022Z,25.15
2023-02-14T21:05:40.214Z,25.67
2023-02-14T21:08:06.860Z,23.55
2023-02-14T21:10:33.436Z,23.80
2023-02-14T21:13:00.106Z,24.27
2023-02-14T21:15:27.515Z,24.77
2023-02-14T21:17:54.235Z,22.77
2023-02-14T21:20:21.023Z,23.50
2023-02-14T21:22:47.580Z,22.37
2023-02-14T21:25:14.281Z,22.95
2023-02-14T21:27:41.268Z,24.73
2023-02-14T21:30:08.596Z,23.23
2023-02-14T21:32:35.196Z,23.95
2023-02-14T21:35:01.833Z,21.87
2023-02-14T21:37:28.388Z,22.05
2023-02-14T21:39:54.985Z,23.92
2023-02-14T21:42:21.666Z,22.77
2023-02-14T21:45:06.917Z,23.30
2023-02-14T21:47:37.676Z,22.13
2023-02-14T21:50:23.433Z,22.73
2023-02-14T21:52:50.004Z,23.02
2023-02-14T21:55:16.691Z,23.88
2023-02-14T21:57:43.379Z,24.23
2023-02-14T22:00:10.381Z,22.33
2023-02-14T22:02:38.734Z,23.25
2023-02-14T22:05:07.576Z,23.50
2023-02-14T22:07:35.085Z,22.92
2023-02-14T22:10:02.383Z,22.85
2023-02-14T22:12:29.701Z,22.83
2023-02-14T22:15:00.048Z,22.45
2023-02-14T22:17:27.351Z,22.33
2023-02-14T22:19:54.512Z,21.90
2023-02-14T22:22:21.444Z,22.50
2023-02-14T22:24:48.482Z,23.97
2023-02-14T22:27:16.068Z,22.90
2023-02-14T22:29:43.048Z,23.13
2023-02-14T22:32:09.978Z,22.80
2023-02-14T22:34:36.633Z,23.92
2023-02-14T22:37:03.238Z,22.63
2023-02-14T22:39:29.907Z,22.63
2023-02-14T22:41:56.626Z,23.13
2023-02-14T22:44:23.238Z,21.48
2023-02-14T22:46:50.209Z,23.10
2023-02-14T22:49:17.381Z,21.47
2023-02-14T22:51:44.350Z,23.70
2023-02-14T22:54:13.689Z,22.83
2023-02-14T22:56:43.370Z,22.98
2023-02-14T22:59:19.050Z,22.58
2023-02-14T23:01:46.124Z,24.03
2023-02-14T23:04:14.622Z,22.67
2023-02-14T23:06:41.350Z,24.15
2023-02-14T23:09:09.464Z,25.02
2023-02-14T23:11:37.843Z,24.35
2023-02-14T23:14:24.316Z,23.47
2023-02-14T23:17:09.930Z,24.38
2023-02-14T23:19:55.370Z,25.77
2023-02-14T23:22:26.346Z,24.98
2023-02-14T23:24:57.115Z,23.67
2023-02-14T23:27:31.727Z,25.60
2023-02-14T23:29:58.366Z,25.45
2023-02-14T23:32:24.990Z,25.95
2023-02-14T23:34:52.017Z,24.13
2023-02-14T23:37:19.825Z,23.63
2023-02-14T23:39:46.497Z,23.43
2023-02-14T23:42:14.780Z,24.52
2023-02-14T23:44:43.464Z,25.73
2023-02-14T23:47:10.637Z,26.98
2023-02-14T23:49:39.017Z,27.27
2023-02-14T23:52:07.966Z,25.50
2023-02-14T23:54:35.348Z,25.05
2023-02-14T23:57:03.377Z,25.98
2023-02-14T23:59:30.296Z,27.40
